sensor_id;sensor_type;location;lat;lon;timestamp;P1;durP1;ratioP1;P2;durP2;ratioP2
18076;SDS011;9165;45.714;11.362;2023-05-15T00:01:37;1.67;;;0.57;;
18076;SDS011;9165;45.714;11.362;2023-05-15T00:04:03;0.60;;;0.60;;
18076;SDS011;9165;45.714;11.362;2023-05-15T00:06:30;1.23;;;0.90;;
18076;SDS011;9165;45.714;11.362;2023-05-15T00:08:57;0.77;;;0.70;;
18076;SDS011;9165;45.714;11.362;2023-05-15T00:11:23;1.00;;;0.70;;
18076;SDS011;9165;45.714;11.362;2023-05-15T00:13:52;0.80;;;0.40;;
18076;SDS011;9165;45.714;11.362;2023-05-15T00:16:18;0.67;;;0.60;;
18076;SDS011;9165;45.714;11.362;2023-05-15T00:18:46;0.50;;;0.50;;
18076;SDS011;9165;45.714;11.362;2023-05-15T00:21:13;0.40;;;0.40;;
18076;SDS011;9165;45.714;11.362;2023-05-15T00:23:41;2.30;;;1.00;;
18076;SDS011;9165;45.714;11.362;2023-05-15T00:26:07;0.60;;;0.53;;
18076;SDS011;9165;45.714;11.362;2023-05-15T00:28:34;0.50;;;0.40;;
18076;SDS011;9165;45.714;11.362;2023-05-15T00:31:00;1.13;;;0.50;;
18076;SDS011;9165;45.714;11.362;2023-05-15T00:33:27;2.10;;;0.43;;
18076;SDS011;9165;45.714;11.362;2023-05-15T00:35:55;0.20;;;0.20;;
18076;SDS011;9165;45.714;11.362;2023-05-15T00:38:21;3.40;;;0.30;;
18076;SDS011;9165;45.714;11.362;2023-05-15T00:40:48;0.50;;;0.50;;
18076;SDS011;9165;45.714;11.362;2023-05-15T00:43:15;2.00;;;0.30;;
18076;SDS011;9165;45.714;11.362;2023-05-15T00:45:42;0.63;;;0.50;;
18076;SDS011;9165;45.714;11.362;2023-05-15T00:48:09;0.90;;;0.43;;
18076;SDS011;9165;45.714;11.362;2023-05-15T00:50:37;0.40;;;0.40;;
18076;SDS011;9165;45.714;11.362;2023-05-15T00:53:06;0.53;;;0.40;;
18076;SDS011;9165;45.714;11.362;2023-05-15T00:55:33;0.40;;;0.40;;
18076;SDS011;9165;45.714;11.362;2023-05-15T00:58:02;0.57;;;0.50;;
18076;SDS011;9165;45.714;11.362;2023-05-15T01:00:29;0.30;;;0.30;;
18076;SDS011;9165;45.714;11.362;2023-05-15T01:02:56;0.60;;;0.50;;
18076;SDS011;9165;45.714;11.362;2023-05-15T01:05:23;0.50;;;0.50;;
18076;SDS011;9165;45.714;11.362;2023-05-15T01:07:51;8.43;;;0.40;;
18076;SDS011;9165;45.714;11.362;2023-05-15T01:10:23;2.23;;;0.50;;
18076;SDS011;9165;45.714;11.362;2023-05-15T01:12:49;0.43;;;0.40;;
18076;SDS011;9165;45.714;11.362;2023-05-15T01:15:18;2.00;;;0.43;;
18076;SDS011;9165;45.714;11.362;2023-05-15T01:17:45;1.20;;;0.80;;
18076;SDS011;9165;45.714;11.362;2023-05-15T01:20:12;0.30;;;0.30;;
18076;SDS011;9165;45.714;11.362;2023-05-15T01:22:41;0.57;;;0.57;;
18076;SDS011;9165;45.714;11.362;2023-05-15T01:25:22;0.57;;;0.50;;
18076;SDS011;9165;45.714;11.362;2023-05-15T01:27:57;0.57;;;0.57;;
18076;SDS011;9165;45.714;11.362;2023-05-15T01:30:26;0.47;;;0.47;;
18076;SDS011;9165;45.714;11.362;2023-05-15T01:32:55;0.80;;;0.40;;
18076;SDS011;9165;45.714;11.362;2023-05-15T01:35:25;2.00;;;0.50;;
18076;SDS011;9165;45.714;11.362;2023-05-15T01:37:55;0.53;;;0.50;;
18076;SDS011;9165;45.714;11.362;2023-05-15T01:40:24;0.40;;;0.40;;
18076;SDS011;9165;45.714;11.362;2023-05-15T01:42:53;0.43;;;0.43;;
18076;SDS011;9165;45.714;11.362;2023-05-15T01:45:22;0.20;;;0.20;;
18076;SDS011;9165;45.714;11.362;2023-05-15T01:47:49;0.47;;;0.37;;
18076;SDS011;9165;45.714;11.362;2023-05-15T01:50:18;0.33;;;0.33;;
18076;SDS011;9165;45.714;11.362;2023-05-15T01:52:46;0.30;;;0.30;;
18076;SDS011;9165;45.714;11.362;2023-05-15T01:55:13;0.40;;;0.40;;
18076;SDS011;9165;45.714;11.362;2023-05-15T01:57:40;0.40;;;0.40;;
18076;SDS011;9165;45.714;11.362;2023-05-15T02:00:07;0.67;;;0.50;;
18076;SDS011;9165;45.714;11.362;2023-05-15T02:02:37;0.20;;;0.20;;
18076;SDS011;9165;45.714;11.362;2023-05-15T02:05:04;0.20;;;0.20;;
18076;SDS011;9165;45.714;11.362;2023-05-15T02:07:31;0.80;;;0.57;;
18076;SDS011;9165;45.714;11.362;2023-05-15T02:09:59;0.40;;;0.40;;
18076;SDS011;9165;45.714;11.362;2023-05-15T02:12:27;0.20;;;0.20;;
18076;SDS011;9165;45.714;11.362;2023-05-15T02:14:53;0.20;;;0.20;;
18076;SDS011;9165;45.714;11.362;2023-05-15T02:17:21;2.03;;;0.30;;
18076;SDS011;9165;45.714;11.362;2023-05-15T02:19:49;0.20;;;0.20;;
18076;SDS011;9165;45.714;11.362;2023-05-15T02:22:15;0.10;;;0.10;;
18076;SDS011;9165;45.714;11.362;2023-05-15T02:24:42;0.27;;;0.20;;
18076;SDS011;9165;45.714;11.362;2023-05-15T02:27:10;1.70;;;0.30;;
18076;SDS011;9165;45.714;11.362;2023-05-15T02:29:41;0.60;;;0.17;;
18076;SDS011;9165;45.714;11.362;2023-05-15T02:32:10;1.60;;;0.33;;
18076;SDS011;9165;45.714;11.362;2023-05-15T02:34:41;0.10;;;0.10;;
18076;SDS011;9165;45.714;11.362;2023-05-15T02:37:12;0.23;;;0.23;;
18076;SDS011;9165;45.714;11.362;2023-05-15T02:39:40;0.17;;;0.17;;
18076;SDS011;9165;45.714;11.362;2023-05-15T02:42:08;0.30;;;0.30;;
18076;SDS011;9165;45.714;11.362;2023-05-15T02:44:35;0.83;;;0.20;;
18076;SDS011;9165;45.714;11.362;2023-05-15T02:47:02;2.57;;;0.20;;
18076;SDS011;9165;45.714;11.362;2023-05-15T02:49:30;0.70;;;0.40;;
18076;SDS011;9165;45.714;11.362;2023-05-15T02:51:57;2.10;;;0.17;;
18076;SDS011;9165;45.714;11.362;2023-05-15T02:54:25;0.30;;;0.30;;
18076;SDS011;9165;45.714;11.362;2023-05-15T02:56:52;0.87;;;0.23;;
18076;SDS011;9165;45.714;11.362;2023-05-15T02:59:18;0.13;;;0.13;;
18076;SDS011;9165;45.714;11.362;2023-05-15T03:01:45;0.23;;;0.23;;
18076;SDS011;9165;45.714;11.362;2023-05-15T03:04:12;0.30;;;0.30;;
18076;SDS011;9165;45.714;11.362;2023-05-15T03:06:39;0.43;;;0.30;;
18076;SDS011;9165;45.714;11.362;2023-05-15T03:09:06;0.20;;;0.20;;
18076;SDS011;9165;45.714;11.362;2023-05-15T03:11:34;0.40;;;0.40;;
18076;SDS011;9165;45.714;11.362;2023-05-15T03:14:00;0.67;;;0.30;;
18076;SDS011;9165;45.714;11.362;2023-05-15T03:16:27;0.30;;;0.20;;
18076;SDS011;9165;45.714;11.362;2023-05-15T03:18:54;0.30;;;0.30;;
18076;SDS011;9165;45.714;11.362;2023-05-15T03:21:21;1.27;;;0.50;;
18076;SDS011;9165;45.714;11.362;2023-05-15T03:23:47;0.30;;;0.30;;
18076;SDS011;9165;45.714;11.362;2023-05-15T03:26:14;1.50;;;0.30;;
18076;SDS011;9165;45.714;11.362;2023-05-15T03:28:42;1.50;;;1.40;;
18076;SDS011;9165;45.714;11.362;2023-05-15T03:31:09;0.30;;;0.30;;
18076;SDS011;9165;45.714;11.362;2023-05-15T03:33:36;0.30;;;0.30;;
18076;SDS011;9165;45.714;11.362;2023-05-15T03:36:03;0.40;;;0.40;;
18076;SDS011;9165;45.714;11.362;2023-05-15T03:38:30;0.30;;;0.30;;
18076;SDS011;9165;45.714;11.362;2023-05-15T03:40:57;0.30;;;0.30;;
18076;SDS011;9165;45.714;11.362;2023-05-15T03:43:24;0.27;;;0.27;;
18076;SDS011;9165;45.714;11.362;2023-05-15T03:45:52;0.70;;;0.53;;
18076;SDS011;9165;45.714;11.362;2023-05-15T03:48:19;0.37;;;0.37;;
18076;SDS011;9165;45.714;11.362;2023-05-15T03:50:46;0.30;;;0.30;;
18076;SDS011;9165;45.714;11.362;2023-05-15T03:53:13;0.27;;;0.27;;
18076;SDS011;9165;45.714;11.362;2023-05-15T03:55:39;1.33;;;0.37;;
18076;SDS011;9165;45.714;11.362;2023-05-15T03:58:06;1.67;;;0.40;;
18076;SDS011;9165;45.714;11.362;2023-05-15T04:00:33;1.17;;;0.50;;
18076;SDS011;9165;45.714;11.362;2023-05-15T04:03:02;2.57;;;0.30;;
18076;SDS011;9165;45.714;11.362;2023-05-15T04:05:28;0.30;;;0.30;;
18076;SDS011;9165;45.714;11.362;2023-05-15T04:07:55;0.20;;;0.20;;
18076;SDS011;9165;45.714;11.362;2023-05-15T04:10:21;0.40;;;0.40;;
18076;SDS011;9165;45.714;11.362;2023-05-15T04:12:48;0.50;;;0.50;;
18076;SDS011;9165;45.714;11.362;2023-05-15T04:15:16;0.30;;;0.30;;
18076;SDS011;9165;45.714;11.362;2023-05-15T04:17:43;0.53;;;0.40;;
18076;SDS011;9165;45.714;11.362;2023-05-15T04:20:13;0.30;;;0.30;;
18076;SDS011;9165;45.714;11.362;2023-05-15T04:22:40;1.03;;;0.53;;
18076;SDS011;9165;45.714;11.362;2023-05-15T04:25:07;0.30;;;0.30;;
18076;SDS011;9165;45.714;11.362;2023-05-15T04:27:35;2.20;;;0.60;;
18076;SDS011;9165;45.714;11.362;2023-05-15T04:30:02;0.30;;;0.30;;
18076;SDS011;9165;45.714;11.362;2023-05-15T04:32:30;0.47;;;0.47;;
18076;SDS011;9165;45.714;11.362;2023-05-15T04:34:57;0.47;;;0.37;;
18076;SDS011;9165;45.714;11.362;2023-05-15T04:37:25;0.50;;;0.50;;
18076;SDS011;9165;45.714;11.362;2023-05-15T04:39:52;0.30;;;0.30;;
18076;SDS011;9165;45.714;11.362;2023-05-15T04:42:19;3.80;;;0.53;;
18076;SDS011;9165;45.714;11.362;2023-05-15T04:44:46;0.50;;;0.50;;
18076;SDS011;9165;45.714;11.362;2023-05-15T04:47:13;0.70;;;0.60;;
18076;SDS011;9165;45.714;11.362;2023-05-15T04:49:40;0.50;;;0.20;;
18076;SDS011;9165;45.714;11.362;2023-05-15T04:52:07;0.57;;;0.33;;
18076;SDS011;9165;45.714;11.362;2023-05-15T04:54:35;0.50;;;0.50;;
18076;SDS011;9165;45.714;11.362;2023-05-15T04:57:02;0.50;;;0.50;;
18076;SDS011;9165;45.714;11.362;2023-05-15T04:59:29;0.60;;;0.60;;
18076;SDS011;9165;45.714;11.362;2023-05-15T05:01:55;0.60;;;0.43;;
18076;SDS011;9165;45.714;11.362;2023-05-15T05:04:22;4.83;;;0.80;;
18076;SDS011;9165;45.714;11.362;2023-05-15T05:06:49;1.23;;;0.60;;
18076;SDS011;9165;45.714;11.362;2023-05-15T05:09:17;2.17;;;0.63;;
18076;SDS011;9165;45.714;11.362;2023-05-15T05:11:45;0.47;;;0.47;;
18076;SDS011;9165;45.714;11.362;2023-05-15T05:14:12;0.47;;;0.47;;
18076;SDS011;9165;45.714;11.362;2023-05-15T05:16:39;1.20;;;0.80;;
18076;SDS011;9165;45.714;11.362;2023-05-15T05:19:06;2.50;;;0.60;;
18076;SDS011;9165;45.714;11.362;2023-05-15T05:21:33;0.60;;;0.50;;
18076;SDS011;9165;45.714;11.362;2023-05-15T05:24:00;0.67;;;0.67;;
18076;SDS011;9165;45.714;11.362;2023-05-15T05:26:26;0.67;;;0.63;;
18076;SDS011;9165;45.714;11.362;2023-05-15T05:28:54;0.40;;;0.40;;
18076;SDS011;9165;45.714;11.362;2023-05-15T05:31:21;0.50;;;0.40;;
18076;SDS011;9165;45.714;11.362;2023-05-15T05:33:48;3.40;;;0.90;;
18076;SDS011;9165;45.714;11.362;2023-05-15T05:36:15;1.00;;;0.70;;
18076;SDS011;9165;45.714;11.362;2023-05-15T05:38:42;0.40;;;0.40;;
18076;SDS011;9165;45.714;11.362;2023-05-15T05:41:08;4.37;;;0.60;;
18076;SDS011;9165;45.714;11.362;2023-05-15T05:43:35;0.70;;;0.50;;
18076;SDS011;9165;45.714;11.362;2023-05-15T05:46:04;1.63;;;0.60;;
18076;SDS011;9165;45.714;11.362;2023-05-15T05:48:31;1.53;;;0.90;;
18076;SDS011;9165;45.714;11.362;2023-05-15T05:50:58;0.50;;;0.50;;
18076;SDS011;9165;45.714;11.362;2023-05-15T05:53:24;1.27;;;0.60;;
18076;SDS011;9165;45.714;11.362;2023-05-15T05:55:51;0.97;;;0.63;;
18076;SDS011;9165;45.714;11.362;2023-05-15T05:58:18;0.93;;;0.60;;
18076;SDS011;9165;45.714;11.362;2023-05-15T06:00:45;1.07;;;0.53;;
18076;SDS011;9165;45.714;11.362;2023-05-15T06:03:13;0.60;;;0.60;;
18076;SDS011;9165;45.714;11.362;2023-05-15T06:05:40;2.37;;;0.57;;
18076;SDS011;9165;45.714;11.362;2023-05-15T06:08:06;1.17;;;0.70;;
18076;SDS011;9165;45.714;11.362;2023-05-15T06:10:33;0.90;;;0.70;;
18076;SDS011;9165;45.714;11.362;2023-05-15T06:12:59;0.80;;;0.70;;
18076;SDS011;9165;45.714;11.362;2023-05-15T06:15:26;3.70;;;0.60;;
18076;SDS011;9165;45.714;11.362;2023-05-15T06:17:53;5.47;;;4.00;;
18076;SDS011;9165;45.714;11.362;2023-05-15T06:20:22;0.80;;;0.70;;
18076;SDS011;9165;45.714;11.362;2023-05-15T06:22:48;1.20;;;0.90;;
18076;SDS011;9165;45.714;11.362;2023-05-15T06:25:15;0.80;;;0.80;;
18076;SDS011;9165;45.714;11.362;2023-05-15T06:27:42;1.13;;;0.90;;
18076;SDS011;9165;45.714;11.362;2023-05-15T06:30:10;11.73;;;2.60;;
18076;SDS011;9165;45.714;11.362;2023-05-15T06:32:37;1.93;;;1.33;;
18076;SDS011;9165;45.714;11.362;2023-05-15T06:35:04;1.47;;;1.37;;
18076;SDS011;9165;45.714;11.362;2023-05-15T06:37:32;1.20;;;1.10;;
18076;SDS011;9165;45.714;11.362;2023-05-15T06:39:59;6.43;;;1.37;;
18076;SDS011;9165;45.714;11.362;2023-05-15T06:42:26;1.87;;;1.00;;
18076;SDS011;9165;45.714;11.362;2023-05-15T06:44:53;0.97;;;0.80;;
18076;SDS011;9165;45.714;11.362;2023-05-15T06:47:19;1.20;;;1.10;;
18076;SDS011;9165;45.714;11.362;2023-05-15T06:49:46;1.40;;;1.30;;
18076;SDS011;9165;45.714;11.362;2023-05-15T06:52:13;2.27;;;1.30;;
18076;SDS011;9165;45.714;11.362;2023-05-15T06:54:41;1.27;;;1.20;;
18076;SDS011;9165;45.714;11.362;2023-05-15T06:57:08;1.90;;;1.10;;
18076;SDS011;9165;45.714;11.362;2023-05-15T06:59:34;1.50;;;0.77;;
18076;SDS011;9165;45.714;11.362;2023-05-15T07:02:01;4.17;;;1.23;;
18076;SDS011;9165;45.714;11.362;2023-05-15T07:04:28;3.07;;;1.10;;
18076;SDS011;9165;45.714;11.362;2023-05-15T07:06:55;0.87;;;0.87;;
18076;SDS011;9165;45.714;11.362;2023-05-15T07:09:22;0.80;;;0.80;;
18076;SDS011;9165;45.714;11.362;2023-05-15T07:11:50;1.20;;;1.07;;
18076;SDS011;9165;45.714;11.362;2023-05-15T07:14:17;1.67;;;1.00;;
18076;SDS011;9165;45.714;11.362;2023-05-15T07:16:44;2.73;;;1.10;;
18076;SDS011;9165;45.714;11.362;2023-05-15T07:19:11;1.23;;;0.90;;
18076;SDS011;9165;45.714;11.362;2023-05-15T07:21:38;0.93;;;0.90;;
18076;SDS011;9165;45.714;11.362;2023-05-15T07:24:04;1.37;;;0.90;;
18076;SDS011;9165;45.714;11.362;2023-05-15T07:26:31;0.90;;;0.90;;
18076;SDS011;9165;45.714;11.362;2023-05-15T07:28:59;1.30;;;1.10;;
18076;SDS011;9165;45.714;11.362;2023-05-15T07:31:26;1.07;;;0.97;;
18076;SDS011;9165;45.714;11.362;2023-05-15T07:33:53;3.53;;;1.10;;
18076;SDS011;9165;45.714;11.362;2023-05-15T07:36:19;0.90;;;0.77;;
18076;SDS011;9165;45.714;11.362;2023-05-15T07:38:46;1.93;;;0.80;;
18076;SDS011;9165;45.714;11.362;2023-05-15T07:41:13;0.80;;;0.80;;
18076;SDS011;9165;45.714;11.362;2023-05-15T07:43:39;0.70;;;0.70;;
18076;SDS011;9165;45.714;11.362;2023-05-15T07:46:08;2.17;;;0.73;;
18076;SDS011;9165;45.714;11.362;2023-05-15T07:48:35;2.10;;;1.90;;
18076;SDS011;9165;45.714;11.362;2023-05-15T07:51:02;2.90;;;1.07;;
18076;SDS011;9165;45.714;11.362;2023-05-15T07:53:29;1.30;;;0.60;;
18076;SDS011;9165;45.714;11.362;2023-05-15T07:55:57;0.70;;;0.57;;
18076;SDS011;9165;45.714;11.362;2023-05-15T07:58:24;1.57;;;0.63;;
18076;SDS011;9165;45.714;11.362;2023-05-15T08:00:51;3.00;;;0.77;;
18076;SDS011;9165;45.714;11.362;2023-05-15T08:03:19;1.00;;;0.70;;
18076;SDS011;9165;45.714;11.362;2023-05-15T08:05:46;0.40;;;0.40;;
18076;SDS011;9165;45.714;11.362;2023-05-15T08:08:13;0.50;;;0.50;;
18076;SDS011;9165;45.714;11.362;2023-05-15T08:10:39;4.13;;;1.00;;
18076;SDS011;9165;45.714;11.362;2023-05-15T08:13:06;2.10;;;0.90;;
18076;SDS011;9165;45.714;11.362;2023-05-15T08:15:33;1.20;;;1.10;;
18076;SDS011;9165;45.714;11.362;2023-05-15T08:18:00;1.47;;;1.10;;
18076;SDS011;9165;45.714;11.362;2023-05-15T08:20:28;1.00;;;0.90;;
18076;SDS011;9165;45.714;11.362;2023-05-15T08:22:54;2.57;;;1.60;;
18076;SDS011;9165;45.714;11.362;2023-05-15T08:25:21;3.30;;;1.50;;
18076;SDS011;9165;45.714;11.362;2023-05-15T08:27:48;1.30;;;1.13;;
18076;SDS011;9165;45.714;11.362;2023-05-15T08:30:14;2.03;;;0.90;;
18076;SDS011;9165;45.714;11.362;2023-05-15T08:32:41;3.97;;;1.30;;
18076;SDS011;9165;45.714;11.362;2023-05-15T08:35:08;1.10;;;1.00;;
18076;SDS011;9165;45.714;11.362;2023-05-15T08:37:36;1.00;;;1.00;;
18076;SDS011;9165;45.714;11.362;2023-05-15T08:40:03;1.33;;;1.03;;
18076;SDS011;9165;45.714;11.362;2023-05-15T08:42:33;1.43;;;1.13;;
18076;SDS011;9165;45.714;11.362;2023-05-15T08:45:00;0.97;;;0.97;;
18076;SDS011;9165;45.714;11.362;2023-05-15T08:47:28;0.93;;;0.90;;
18076;SDS011;9165;45.714;11.362;2023-05-15T08:49:57;3.37;;;1.43;;
18076;SDS011;9165;45.714;11.362;2023-05-15T08:52:24;1.50;;;1.30;;
18076;SDS011;9165;45.714;11.362;2023-05-15T08:54:52;1.13;;;1.03;;
18076;SDS011;9165;45.714;11.362;2023-05-15T08:57:19;1.03;;;1.00;;
18076;SDS011;9165;45.714;11.362;2023-05-15T08:59:46;2.43;;;1.23;;
18076;SDS011;9165;45.714;11.362;2023-05-15T09:02:13;11.50;;;1.80;;
18076;SDS011;9165;45.714;11.362;2023-05-15T09:04:40;2.03;;;1.33;;
18076;SDS011;9165;45.714;11.362;2023-05-15T09:07:07;3.60;;;1.43;;
18076;SDS011;9165;45.714;11.362;2023-05-15T09:09:34;1.50;;;1.40;;
18076;SDS011;9165;45.714;11.362;2023-05-15T09:12:04;1.97;;;1.77;;
18076;SDS011;9165;45.714;11.362;2023-05-15T09:14:32;4.73;;;1.47;;
18076;SDS011;9165;45.714;11.362;2023-05-15T09:16:58;1.37;;;1.27;;
18076;SDS011;9165;45.714;11.362;2023-05-15T09:19:26;1.93;;;1.47;;
18076;SDS011;9165;45.714;11.362;2023-05-15T09:21:53;1.93;;;1.40;;
18076;SDS011;9165;45.714;11.362;2023-05-15T09:24:21;7.03;;;2.33;;
18076;SDS011;9165;45.714;11.362;2023-05-15T09:26:59;2.10;;;1.93;;
18076;SDS011;9165;45.714;11.362;2023-05-15T09:29:28;1.80;;;1.60;;
18076;SDS011;9165;45.714;11.362;2023-05-15T09:31:55;1.87;;;1.63;;
18076;SDS011;9165;45.714;11.362;2023-05-15T09:34:27;2.17;;;1.90;;
18076;SDS011;9165;45.714;11.362;2023-05-15T09:36:54;2.10;;;1.73;;
18076;SDS011;9165;45.714;11.362;2023-05-15T09:39:21;2.40;;;2.20;;
18076;SDS011;9165;45.714;11.362;2023-05-15T09:41:47;2.87;;;2.30;;
18076;SDS011;9165;45.714;11.362;2023-05-15T09:44:17;5.73;;;1.70;;
18076;SDS011;9165;45.714;11.362;2023-05-15T09:46:46;1.40;;;1.30;;
18076;SDS011;9165;45.714;11.362;2023-05-15T09:49:13;2.33;;;2.13;;
18076;SDS011;9165;45.714;11.362;2023-05-15T09:51:42;2.47;;;1.83;;
18076;SDS011;9165;45.714;11.362;2023-05-15T09:54:12;2.37;;;1.70;;
18076;SDS011;9165;45.714;11.362;2023-05-15T09:56:39;1.50;;;1.40;;
18076;SDS011;9165;45.714;11.362;2023-05-15T09:59:08;2.10;;;1.90;;
18076;SDS011;9165;45.714;11.362;2023-05-15T10:01:37;1.90;;;1.70;;
18076;SDS011;9165;45.714;11.362;2023-05-15T10:04:05;1.67;;;1.57;;
18076;SDS011;9165;45.714;11.362;2023-05-15T10:06:33;2.93;;;1.80;;
18076;SDS011;9165;45.714;11.362;2023-05-15T10:09:00;4.70;;;1.80;;
18076;SDS011;9165;45.714;11.362;2023-05-15T10:11:29;1.60;;;1.50;;
18076;SDS011;9165;45.714;11.362;2023-05-15T10:13:55;2.03;;;1.83;;
18076;SDS011;9165;45.714;11.362;2023-05-15T10:16:23;2.17;;;1.90;;
18076;SDS011;9165;45.714;11.362;2023-05-15T10:18:51;3.90;;;2.00;;
18076;SDS011;9165;45.714;11.362;2023-05-15T10:21:19;2.20;;;1.93;;
18076;SDS011;9165;45.714;11.362;2023-05-15T10:23:47;2.00;;;1.80;;
18076;SDS011;9165;45.714;11.362;2023-05-15T10:26:18;2.10;;;1.80;;
18076;SDS011;9165;45.714;11.362;2023-05-15T10:28:46;2.30;;;1.83;;
18076;SDS011;9165;45.714;11.362;2023-05-15T10:31:12;2.90;;;1.90;;
18076;SDS011;9165;45.714;11.362;2023-05-15T10:33:39;2.43;;;2.17;;
18076;SDS011;9165;45.714;11.362;2023-05-15T10:36:07;1.80;;;1.60;;
18076;SDS011;9165;45.714;11.362;2023-05-15T10:38:35;1.80;;;1.70;;
18076;SDS011;9165;45.714;11.362;2023-05-15T10:41:02;2.87;;;1.80;;
18076;SDS011;9165;45.714;11.362;2023-05-15T10:43:29;1.57;;;1.40;;
18076;SDS011;9165;45.714;11.362;2023-05-15T10:45:57;3.83;;;1.97;;
18076;SDS011;9165;45.714;11.362;2023-05-15T10:48:23;8.97;;;1.63;;
18076;SDS011;9165;45.714;11.362;2023-05-15T10:50:51;5.83;;;1.70;;
18076;SDS011;9165;45.714;11.362;2023-05-15T10:53:18;2.00;;;1.80;;
18076;SDS011;9165;45.714;11.362;2023-05-15T10:55:48;1.40;;;1.30;;
18076;SDS011;9165;45.714;11.362;2023-05-15T10:58:15;1.50;;;1.40;;
18076;SDS011;9165;45.714;11.362;2023-05-15T11:00:43;4.00;;;2.70;;
18076;SDS011;9165;45.714;11.362;2023-05-15T11:03:12;1.87;;;1.57;;
18076;SDS011;9165;45.714;11.362;2023-05-15T11:08:23;2.23;;;1.80;;
18076;SDS011;9165;45.714;11.362;2023-05-15T11:11:04;1.70;;;1.60;;
18076;SDS011;9165;45.714;11.362;2023-05-15T11:16:22;1.87;;;1.67;;
18076;SDS011;9165;45.714;11.362;2023-05-15T11:19:20;3.33;;;1.60;;
18076;SDS011;9165;45.714;11.362;2023-05-15T11:21:47;2.53;;;2.00;;
18076;SDS011;9165;45.714;11.362;2023-05-15T11:24:18;2.20;;;1.97;;
18076;SDS011;9165;45.714;11.362;2023-05-15T11:26:48;1.73;;;1.60;;
18076;SDS011;9165;45.714;11.362;2023-05-15T11:29:17;1.47;;;1.37;;
18076;SDS011;9165;45.714;11.362;2023-05-15T11:31:44;1.60;;;1.50;;
18076;SDS011;9165;45.714;11.362;2023-05-15T11:34:10;2.00;;;1.87;;
18076;SDS011;9165;45.714;11.362;2023-05-15T11:36:37;2.97;;;2.00;;
18076;SDS011;9165;45.714;11.362;2023-05-15T11:39:08;1.80;;;1.70;;
18076;SDS011;9165;45.714;11.362;2023-05-15T11:41:35;2.63;;;1.70;;
18076;SDS011;9165;45.714;11.362;2023-05-15T11:44:04;3.43;;;2.00;;
18076;SDS011;9165;45.714;11.362;2023-05-15T11:46:31;2.70;;;2.07;;
18076;SDS011;9165;45.714;11.362;2023-05-15T11:48:58;2.20;;;2.00;;
18076;SDS011;9165;45.714;11.362;2023-05-15T11:51:25;2.53;;;1.90;;
18076;SDS011;9165;45.714;11.362;2023-05-15T11:53:54;2.60;;;2.00;;
18076;SDS011;9165;45.714;11.362;2023-05-15T11:56:22;2.73;;;2.30;;
18076;SDS011;9165;45.714;11.362;2023-05-15T11:58:50;2.50;;;2.00;;
18076;SDS011;9165;45.714;11.362;2023-05-15T12:01:19;2.50;;;2.20;;
18076;SDS011;9165;45.714;11.362;2023-05-15T12:03:46;4.30;;;2.20;;
18076;SDS011;9165;45.714;11.362;2023-05-15T12:06:13;8.00;;;1.63;;
18076;SDS011;9165;45.714;11.362;2023-05-15T12:08:40;2.33;;;1.57;;
18076;SDS011;9165;45.714;11.362;2023-05-15T12:11:08;2.93;;;1.93;;
18076;SDS011;9165;45.714;11.362;2023-05-15T12:13:35;3.53;;;1.80;;
18076;SDS011;9165;45.714;11.362;2023-05-15T12:16:02;4.97;;;2.27;;
18076;SDS011;9165;45.714;11.362;2023-05-15T12:18:31;2.40;;;1.90;;
18076;SDS011;9165;45.714;11.362;2023-05-15T12:20:58;2.20;;;1.70;;
18076;SDS011;9165;45.714;11.362;2023-05-15T12:23:25;2.83;;;1.70;;
18076;SDS011;9165;45.714;11.362;2023-05-15T12:25:54;3.80;;;1.57;;
18076;SDS011;9165;45.714;11.362;2023-05-15T12:28:22;1.60;;;1.50;;
18076;SDS011;9165;45.714;11.362;2023-05-15T12:30:49;2.00;;;1.60;;
18076;SDS011;9165;45.714;11.362;2023-05-15T12:33:16;2.93;;;2.20;;
18076;SDS011;9165;45.714;11.362;2023-05-15T12:35:49;2.10;;;1.90;;
18076;SDS011;9165;45.714;11.362;2023-05-15T12:38:16;5.10;;;1.70;;
18076;SDS011;9165;45.714;11.362;2023-05-15T12:40:43;1.50;;;1.40;;
18076;SDS011;9165;45.714;11.362;2023-05-15T12:43:11;2.83;;;1.60;;
18076;SDS011;9165;45.714;11.362;2023-05-15T12:45:38;1.70;;;1.60;;
18076;SDS011;9165;45.714;11.362;2023-05-15T12:48:05;1.83;;;1.47;;
18076;SDS011;9165;45.714;11.362;2023-05-15T12:50:32;1.60;;;1.50;;
18076;SDS011;9165;45.714;11.362;2023-05-15T12:53:01;2.00;;;1.57;;
18076;SDS011;9165;45.714;11.362;2023-05-15T12:55:29;1.70;;;1.60;;
18076;SDS011;9165;45.714;11.362;2023-05-15T12:57:57;1.60;;;1.50;;
18076;SDS011;9165;45.714;11.362;2023-05-15T13:00:27;2.20;;;2.00;;
18076;SDS011;9165;45.714;11.362;2023-05-15T13:02:55;1.83;;;1.70;;
18076;SDS011;9165;45.714;11.362;2023-05-15T13:05:22;1.90;;;1.70;;
18076;SDS011;9165;45.714;11.362;2023-05-15T13:07:49;1.50;;;1.40;;
18076;SDS011;9165;45.714;11.362;2023-05-15T13:10:19;2.77;;;1.70;;
18076;SDS011;9165;45.714;11.362;2023-05-15T13:12:46;3.60;;;1.50;;
18076;SDS011;9165;45.714;11.362;2023-05-15T13:15:23;1.43;;;1.30;;
18076;SDS011;9165;45.714;11.362;2023-05-15T13:17:51;1.83;;;1.58;;
18076;SDS011;9165;45.714;11.362;2023-05-15T13:20:20;1.42;;;1.33;;
18076;SDS011;9165;45.714;11.362;2023-05-15T13:22:47;3.75;;;1.35;;
18076;SDS011;9165;45.714;11.362;2023-05-15T13:25:17;2.25;;;2.05;;
18076;SDS011;9165;45.714;11.362;2023-05-15T13:27:46;2.15;;;1.80;;
18076;SDS011;9165;45.714;11.362;2023-05-15T13:30:13;1.52;;;1.42;;
18076;SDS011;9165;45.714;11.362;2023-05-15T13:32:40;1.25;;;1.15;;
18076;SDS011;9165;45.714;11.362;2023-05-15T13:35:07;2.20;;;1.35;;
18076;SDS011;9165;45.714;11.362;2023-05-15T13:37:34;3.38;;;1.35;;
18076;SDS011;9165;45.714;11.362;2023-05-15T13:40:00;1.60;;;1.23;;
18076;SDS011;9165;45.714;11.362;2023-05-15T13:42:32;2.13;;;1.92;;
18076;SDS011;9165;45.714;11.362;2023-05-15T13:44:58;2.13;;;1.42;;
18076;SDS011;9165;45.714;11.362;2023-05-15T13:47:25;1.52;;;1.42;;
18076;SDS011;9165;45.714;11.362;2023-05-15T13:49:52;3.65;;;1.98;;
18076;SDS011;9165;45.714;11.362;2023-05-15T13:52:19;1.83;;;1.63;;
18076;SDS011;9165;45.714;11.362;2023-05-15T13:54:46;1.77;;;1.60;;
18076;SDS011;9165;45.714;11.362;2023-05-15T13:57:12;1.90;;;1.45;;
18076;SDS011;9165;45.714;11.362;2023-05-15T13:59:40;3.70;;;1.70;;
18076;SDS011;9165;45.714;11.362;2023-05-15T14:02:07;2.95;;;1.80;;
18076;SDS011;9165;45.714;11.362;2023-05-15T14:04:35;2.45;;;1.65;;
18076;SDS011;9165;45.714;11.362;2023-05-15T14:07:01;1.50;;;1.40;;
18076;SDS011;9165;45.714;11.362;2023-05-15T14:11:55;4.93;;;1.45;;
18076;SDS011;9165;45.714;11.362;2023-05-15T14:14:21;6.03;;;1.52;;
18076;SDS011;9165;45.714;11.362;2023-05-15T14:16:49;1.92;;;1.75;;
18076;SDS011;9165;45.714;11.362;2023-05-15T14:19:16;1.75;;;1.65;;
18076;SDS011;9165;45.714;11.362;2023-05-15T14:21:43;2.05;;;1.80;;
18076;SDS011;9165;45.714;11.362;2023-05-15T14:24:10;2.15;;;1.65;;
18076;SDS011;9165;45.714;11.362;2023-05-15T14:26:37;2.03;;;1.83;;
18076;SDS011;9165;45.714;11.362;2023-05-15T14:29:04;1.63;;;1.45;;
18076;SDS011;9165;45.714;11.362;2023-05-15T14:31:30;1.77;;;1.67;;
18076;SDS011;9165;45.714;11.362;2023-05-15T14:33:59;3.28;;;1.73;;
18076;SDS011;9165;45.714;11.362;2023-05-15T14:36:26;2.38;;;1.80;;
18076;SDS011;9165;45.714;11.362;2023-05-15T14:38:52;1.88;;;1.63;;
18076;SDS011;9165;45.714;11.362;2023-05-15T14:41:19;3.42;;;2.00;;
18076;SDS011;9165;45.714;11.362;2023-05-15T14:43:46;2.17;;;1.80;;
18076;SDS011;9165;45.714;11.362;2023-05-15T14:46:13;2.45;;;1.77;;
18076;SDS011;9165;45.714;11.362;2023-05-15T14:48:40;1.92;;;1.83;;
18076;SDS011;9165;45.714;11.362;2023-05-15T14:51:08;3.67;;;1.80;;
18076;SDS011;9165;45.714;11.362;2023-05-15T14:53:35;2.33;;;2.00;;
18076;SDS011;9165;45.714;11.362;2023-05-15T14:56:02;8.75;;;1.90;;
18076;SDS011;9165;45.714;11.362;2023-05-15T14:58:29;2.25;;;2.00;;